Terminal Aerodrome Forecast
Issued by NWS

Home | Current Version | Previous Version | Text Only | Print | Product List | Glossary On
Versions: 1 2 3 4 5 6 7 8 9 10 11 12 13 14 15 16 17 18 19 20 21 22 23 24 25
545
FTUS43 KLSX 192115 AAA
TAFSUS
TAF AMD
KSUS 192115Z 1921/2018 VRB03KT 5SM -RA BR OVC008
     FM192300 VRB03KT 2SM BR VCSH OVC003
     FM200300 00000KT 1/4SM FG OVC003
     FM201400 16004KT 2SM BR OVC003=

USA.gov is the U.S. government's official web portal to all federal, state and local government web resources and services.